sensor_id;sensor_type;location;lat;lon;timestamp;pressure;altitude;pressure_sealevel;temperature;humidity
64521;BME280;50896;46.714;17.322;2023-07-09T00:01:57;100864.75;;;18.10;100.00
64521;BME280;50896;46.714;17.322;2023-07-09T00:04:24;100858.53;;;18.09;100.00
64521;BME280;50896;46.714;17.322;2023-07-09T00:06:51;100867.66;;;18.08;100.00
64521;BME280;50896;46.714;17.322;2023-07-09T00:09:20;100867.66;;;18.08;100.00
64521;BME280;50896;46.714;17.322;2023-07-09T00:11:49;100869.72;;;18.13;100.00
64521;BME280;50896;46.714;17.322;2023-07-09T00:14:16;100866.78;;;18.08;100.00
64521;BME280;50896;46.714;17.322;2023-07-09T00:16:44;100877.75;;;18.06;100.00
64521;BME280;50896;46.714;17.322;2023-07-09T00:19:31;100874.47;;;18.04;100.00
64521;BME280;50896;46.714;17.322;2023-07-09T00:21:58;100879.84;;;18.04;100.00
64521;BME280;50896;46.714;17.322;2023-07-09T00:24:25;100882.75;;;18.09;100.00
64521;BME280;50896;46.714;17.322;2023-07-09T00:26:52;100887.69;;;18.06;100.00
64521;BME280;50896;46.714;17.322;2023-07-09T00:29:19;100885.22;;;18.11;100.00
64521;BME280;50896;46.714;17.322;2023-07-09T00:31:46;100878.81;;;18.12;100.00
64521;BME280;50896;46.714;17.322;2023-07-09T00:34:14;100885.25;;;18.18;100.00
64521;BME280;50896;46.714;17.322;2023-07-09T00:36:44;100886.72;;;18.20;100.00
64521;BME280;50896;46.714;17.322;2023-07-09T00:39:22;100879.66;;;18.13;100.00
64521;BME280;50896;46.714;17.322;2023-07-09T00:41:50;100882.94;;;18.08;100.00
64521;BME280;50896;46.714;17.322;2023-07-09T00:49:29;100885.59;;;17.95;100.00
64521;BME280;50896;46.714;17.322;2023-07-09T00:52:01;100887.84;;;17.91;100.00
64521;BME280;50896;46.714;17.322;2023-07-09T00:54:38;100876.88;;;17.92;100.00
64521;BME280;50896;46.714;17.322;2023-07-09T00:57:13;100882.03;;;17.94;100.00
64521;BME280;50896;46.714;17.322;2023-07-09T00:59:50;100886.81;;;17.92;100.00
64521;BME280;50896;46.714;17.322;2023-07-09T01:02:20;100886.13;;;17.90;100.00
64521;BME280;50896;46.714;17.322;2023-07-09T01:04:54;100871.41;;;17.86;100.00
64521;BME280;50896;46.714;17.322;2023-07-09T01:07:23;100880.75;;;17.90;100.00
64521;BME280;50896;46.714;17.322;2023-07-09T01:09:50;100887.34;;;17.87;100.00
64521;BME280;50896;46.714;17.322;2023-07-09T01:12:18;100877.84;;;17.85;100.00
64521;BME280;50896;46.714;17.322;2023-07-09T01:14:48;100886.69;;;17.79;100.00
64521;BME280;50896;46.714;17.322;2023-07-09T01:17:18;100880.47;;;17.71;100.00
64521;BME280;50896;46.714;17.322;2023-07-09T01:19:50;100885.19;;;17.69;100.00
64521;BME280;50896;46.714;17.322;2023-07-09T01:22:19;100884.84;;;17.79;100.00
64521;BME280;50896;46.714;17.322;2023-07-09T01:27:17;100878.16;;;17.68;100.00
64521;BME280;50896;46.714;17.322;2023-07-09T01:29:45;100877.53;;;17.66;100.00
64521;BME280;50896;46.714;17.322;2023-07-09T01:32:17;100885.19;;;17.69;100.00
64521;BME280;50896;46.714;17.322;2023-07-09T01:34:46;100878.94;;;17.62;100.00
64521;BME280;50896;46.714;17.322;2023-07-09T01:37:16;100879.78;;;17.63;100.00
64521;BME280;50896;46.714;17.322;2023-07-09T01:39:44;100889.06;;;17.60;100.00
64521;BME280;50896;46.714;17.322;2023-07-09T01:42:11;100891.78;;;17.60;100.00
64521;BME280;50896;46.714;17.322;2023-07-09T01:44:39;100900.69;;;17.67;100.00
64521;BME280;50896;46.714;17.322;2023-07-09T01:47:07;100897.41;;;17.72;100.00
64521;BME280;50896;46.714;17.322;2023-07-09T01:49:33;100890.00;;;17.74;100.00
64521;BME280;50896;46.714;17.322;2023-07-09T01:52:02;100896.34;;;17.66;100.00
64521;BME280;50896;46.714;17.322;2023-07-09T01:54:30;100897.97;;;17.60;100.00
64521;BME280;50896;46.714;17.322;2023-07-09T01:57:22;100903.13;;;17.62;100.00
64521;BME280;50896;46.714;17.322;2023-07-09T01:59:51;100902.31;;;17.62;100.00
64521;BME280;50896;46.714;17.322;2023-07-09T02:02:19;100899.88;;;17.67;100.00
64521;BME280;50896;46.714;17.322;2023-07-09T02:04:54;100906.88;;;17.61;100.00
64521;BME280;50896;46.714;17.322;2023-07-09T02:07:23;100913.66;;;17.57;100.00
64521;BME280;50896;46.714;17.322;2023-07-09T02:09:50;100916.34;;;17.57;100.00
64521;BME280;50896;46.714;17.322;2023-07-09T02:12:18;100910.97;;;17.57;100.00
64521;BME280;50896;46.714;17.322;2023-07-09T02:14:45;100913.66;;;17.57;100.00
64521;BME280;50896;46.714;17.322;2023-07-09T02:17:14;100910.13;;;17.56;100.00
64521;BME280;50896;46.714;17.322;2023-07-09T02:19:41;100917.97;;;17.51;100.00
64521;BME280;50896;46.714;17.322;2023-07-09T02:22:10;100907.16;;;17.45;100.00
64521;BME280;50896;46.714;17.322;2023-07-09T02:24:37;100910.88;;;17.43;100.00
64521;BME280;50896;46.714;17.322;2023-07-09T02:27:06;100907.13;;;17.38;100.00
64521;BME280;50896;46.714;17.322;2023-07-09T02:29:34;100899.66;;;17.40;100.00
64521;BME280;50896;46.714;17.322;2023-07-09T02:32:01;100900.59;;;17.47;100.00
64521;BME280;50896;46.714;17.322;2023-07-09T02:34:30;100903.25;;;17.47;100.00
64521;BME280;50896;46.714;17.322;2023-07-09T02:36:58;100901.78;;;17.45;100.00
64521;BME280;50896;46.714;17.322;2023-07-09T02:39:26;100912.16;;;17.48;100.00
64521;BME280;50896;46.714;17.322;2023-07-09T02:41:53;100919.06;;;17.57;100.00
64521;BME280;50896;46.714;17.322;2023-07-09T02:44:20;100918.91;;;17.65;100.00
64521;BME280;50896;46.714;17.322;2023-07-09T02:46:47;100922.34;;;17.59;100.00
64521;BME280;50896;46.714;17.322;2023-07-09T02:49:15;100913.91;;;17.62;100.00
64521;BME280;50896;46.714;17.322;2023-07-09T02:51:43;100916.97;;;17.59;100.00
64521;BME280;50896;46.714;17.322;2023-07-09T02:54:09;100917.19;;;17.57;100.00
64521;BME280;50896;46.714;17.322;2023-07-09T02:56:36;100924.03;;;17.60;100.00
64521;BME280;50896;46.714;17.322;2023-07-09T02:59:04;100922.09;;;17.54;100.00
64521;BME280;50896;46.714;17.322;2023-07-09T03:01:31;100922.97;;;17.54;100.00
64521;BME280;50896;46.714;17.322;2023-07-09T03:04:02;100925.84;;;17.53;100.00
64521;BME280;50896;46.714;17.322;2023-07-09T03:06:32;100930.81;;;17.56;100.00
64521;BME280;50896;46.714;17.322;2023-07-09T03:09:00;100944.06;;;17.57;100.00
64521;BME280;50896;46.714;17.322;2023-07-09T03:11:29;100931.22;;;17.53;100.00
64521;BME280;50896;46.714;17.322;2023-07-09T03:14:01;100941.97;;;17.53;100.00
64521;BME280;50896;46.714;17.322;2023-07-09T03:16:31;100944.47;;;17.54;100.00
64521;BME280;50896;46.714;17.322;2023-07-09T03:18:59;100944.25;;;17.56;100.00
64521;BME280;50896;46.714;17.322;2023-07-09T03:21:27;100940.50;;;17.50;100.00
64521;BME280;50896;46.714;17.322;2023-07-09T03:23:54;100941.31;;;17.51;100.00
64521;BME280;50896;46.714;17.322;2023-07-09T03:26:22;100947.81;;;17.63;100.00
64521;BME280;50896;46.714;17.322;2023-07-09T03:28:49;100943.91;;;17.66;100.00
64521;BME280;50896;46.714;17.322;2023-07-09T03:31:15;100943.13;;;17.72;100.00
64521;BME280;50896;46.714;17.322;2023-07-09T03:33:43;100945.25;;;17.76;100.00
64521;BME280;50896;46.714;17.322;2023-07-09T03:36:10;100955.34;;;17.74;100.00
64521;BME280;50896;46.714;17.322;2023-07-09T03:38:36;100945.91;;;17.85;100.00
64521;BME280;50896;46.714;17.322;2023-07-09T03:41:04;100950.13;;;17.95;100.00
64521;BME280;50896;46.714;17.322;2023-07-09T03:43:30;100944.94;;;17.93;100.00
64521;BME280;50896;46.714;17.322;2023-07-09T03:45:57;100957.56;;;17.92;100.00
64521;BME280;50896;46.714;17.322;2023-07-09T03:48:24;100951.41;;;17.99;100.00
64521;BME280;50896;46.714;17.322;2023-07-09T03:50:51;100950.56;;;17.98;100.00
64521;BME280;50896;46.714;17.322;2023-07-09T03:53:18;100944.81;;;18.08;100.00
64521;BME280;50896;46.714;17.322;2023-07-09T03:55:46;100944.03;;;18.14;100.00
64521;BME280;50896;46.714;17.322;2023-07-09T03:58:13;100940.53;;;18.20;100.00
64521;BME280;50896;46.714;17.322;2023-07-09T04:00:40;100939.09;;;18.24;100.00
64521;BME280;50896;46.714;17.322;2023-07-09T04:03:08;100940.81;;;18.32;100.00
64521;BME280;50896;46.714;17.322;2023-07-09T04:05:35;100944.13;;;18.34;100.00
64521;BME280;50896;46.714;17.322;2023-07-09T04:08:02;100935.06;;;18.42;100.00
64521;BME280;50896;46.714;17.322;2023-07-09T04:10:30;100953.91;;;18.49;100.00
64521;BME280;50896;46.714;17.322;2023-07-09T04:12:57;100950.81;;;18.58;100.00
64521;BME280;50896;46.714;17.322;2023-07-09T04:15:24;100945.66;;;18.64;100.00
64521;BME280;50896;46.714;17.322;2023-07-09T04:17:50;100951.06;;;18.70;100.00
64521;BME280;50896;46.714;17.322;2023-07-09T04:20:18;100946.97;;;18.81;100.00
64521;BME280;50896;46.714;17.322;2023-07-09T04:22:45;100943.06;;;18.90;100.00
64521;BME280;50896;46.714;17.322;2023-07-09T04:25:12;100941.44;;;19.03;100.00
64521;BME280;50896;46.714;17.322;2023-07-09T04:27:39;100941.66;;;19.08;100.00
64521;BME280;50896;46.714;17.322;2023-07-09T04:30:14;100935.63;;;19.12;100.00
64521;BME280;50896;46.714;17.322;2023-07-09T04:32:45;100934.41;;;19.22;100.00
64521;BME280;50896;46.714;17.322;2023-07-09T04:35:14;100935.44;;;19.27;100.00
64521;BME280;50896;46.714;17.322;2023-07-09T04:37:42;100944.34;;;19.35;100.00
64521;BME280;50896;46.714;17.322;2023-07-09T04:40:11;100945.81;;;19.44;100.00
64521;BME280;50896;46.714;17.322;2023-07-09T04:42:38;100937.31;;;19.54;100.00
64521;BME280;50896;46.714;17.322;2023-07-09T04:45:07;100950.97;;;19.66;100.00
64521;BME280;50896;46.714;17.322;2023-07-09T04:47:35;100948.06;;;19.74;100.00
64521;BME280;50896;46.714;17.322;2023-07-09T04:50:04;100945.78;;;19.84;100.00
64521;BME280;50896;46.714;17.322;2023-07-09T04:52:32;100950.13;;;19.92;100.00
64521;BME280;50896;46.714;17.322;2023-07-09T04:54:58;100954.88;;;20.03;100.00
64521;BME280;50896;46.714;17.322;2023-07-09T04:57:26;100959.44;;;20.09;100.00
64521;BME280;50896;46.714;17.322;2023-07-09T04:59:53;100958.81;;;20.07;100.00
64521;BME280;50896;46.714;17.322;2023-07-09T05:02:20;100954.44;;;20.13;100.00
64521;BME280;50896;46.714;17.322;2023-07-09T05:04:47;100952.50;;;20.27;100.00
64521;BME280;50896;46.714;17.322;2023-07-09T05:07:14;100965.53;;;20.43;100.00
64521;BME280;50896;46.714;17.322;2023-07-09T05:09:41;100963.19;;;20.54;100.00
64521;BME280;50896;46.714;17.322;2023-07-09T05:12:08;100956.06;;;20.66;100.00
64521;BME280;50896;46.714;17.322;2023-07-09T05:14:35;100958.56;;;20.74;100.00
64521;BME280;50896;46.714;17.322;2023-07-09T05:17:02;100956.88;;;20.66;100.00
64521;BME280;50896;46.714;17.322;2023-07-09T05:19:31;100951.06;;;20.76;100.00
64521;BME280;50896;46.714;17.322;2023-07-09T05:21:58;100958.63;;;20.93;100.00
64521;BME280;50896;46.714;17.322;2023-07-09T05:24:25;100955.41;;;21.09;100.00
64521;BME280;50896;46.714;17.322;2023-07-09T05:26:54;100959.66;;;21.24;100.00
64521;BME280;50896;46.714;17.322;2023-07-09T05:29:22;100960.38;;;21.38;100.00
64521;BME280;50896;46.714;17.322;2023-07-09T05:31:49;100963.75;;;21.33;100.00
64521;BME280;50896;46.714;17.322;2023-07-09T05:34:16;100965.28;;;21.22;100.00
64521;BME280;50896;46.714;17.322;2023-07-09T05:36:43;100980.44;;;21.30;100.00
64521;BME280;50896;46.714;17.322;2023-07-09T05:39:11;100979.00;;;21.27;100.00
64521;BME280;50896;46.714;17.322;2023-07-09T05:41:38;100989.00;;;21.27;100.00
64521;BME280;50896;46.714;17.322;2023-07-09T05:44:05;100986.50;;;21.25;100.00
64521;BME280;50896;46.714;17.322;2023-07-09T05:46:35;100985.09;;;21.16;100.00
64521;BME280;50896;46.714;17.322;2023-07-09T05:49:06;100983.66;;;21.13;100.00
64521;BME280;50896;46.714;17.322;2023-07-09T05:51:33;100983.63;;;21.20;100.00
64521;BME280;50896;46.714;17.322;2023-07-09T05:54:00;100988.41;;;21.43;100.00
64521;BME280;50896;46.714;17.322;2023-07-09T05:56:27;100982.28;;;21.61;100.00
64521;BME280;50896;46.714;17.322;2023-07-09T05:58:54;100978.88;;;21.73;100.00
64521;BME280;50896;46.714;17.322;2023-07-09T06:01:20;100975.84;;;21.81;100.00
64521;BME280;50896;46.714;17.322;2023-07-09T06:03:48;100973.75;;;22.01;100.00
64521;BME280;50896;46.714;17.322;2023-07-09T06:06:15;100977.75;;;21.99;100.00
64521;BME280;50896;46.714;17.322;2023-07-09T06:08:43;100982.63;;;21.90;100.00
64521;BME280;50896;46.714;17.322;2023-07-09T06:11:09;100981.59;;;22.10;100.00
64521;BME280;50896;46.714;17.322;2023-07-09T06:13:36;100982.72;;;22.21;100.00
64521;BME280;50896;46.714;17.322;2023-07-09T06:16:04;100986.34;;;22.33;100.00
64521;BME280;50896;46.714;17.322;2023-07-09T06:18:31;100983.88;;;22.50;100.00
64521;BME280;50896;46.714;17.322;2023-07-09T06:21:00;100983.78;;;22.57;100.00
64521;BME280;50896;46.714;17.322;2023-07-09T06:23:28;100989.63;;;22.72;100.00
64521;BME280;50896;46.714;17.322;2023-07-09T06:25:56;100992.13;;;22.85;100.00
64521;BME280;50896;46.714;17.322;2023-07-09T06:28:26;100988.28;;;22.93;100.00
64521;BME280;50896;46.714;17.322;2023-07-09T06:30:55;100984.06;;;22.97;100.00
64521;BME280;50896;46.714;17.322;2023-07-09T06:33:24;100985.50;;;23.00;100.00
64521;BME280;50896;46.714;17.322;2023-07-09T06:35:58;100986.44;;;23.06;100.00
64521;BME280;50896;46.714;17.322;2023-07-09T06:38:26;100982.59;;;23.13;100.00
64521;BME280;50896;46.714;17.322;2023-07-09T06:40:53;100982.25;;;23.21;100.00
64521;BME280;50896;46.714;17.322;2023-07-09T06:43:21;100980.03;;;23.30;100.00
64521;BME280;50896;46.714;17.322;2023-07-09T06:45:56;100985.34;;;23.37;100.00
64521;BME280;50896;46.714;17.322;2023-07-09T06:48:25;100980.78;;;23.37;100.00
64521;BME280;50896;46.714;17.322;2023-07-09T06:50:53;100984.78;;;23.47;100.00
64521;BME280;50896;46.714;17.322;2023-07-09T06:53:22;100981.00;;;23.48;100.00
64521;BME280;50896;46.714;17.322;2023-07-09T06:55:49;100988.78;;;23.56;100.00
64521;BME280;50896;46.714;17.322;2023-07-09T06:58:17;100986.78;;;23.63;100.00
64521;BME280;50896;46.714;17.322;2023-07-09T07:00:44;100982.06;;;23.70;100.00
64521;BME280;50896;46.714;17.322;2023-07-09T07:03:11;100986.66;;;23.82;100.00
64521;BME280;50896;46.714;17.322;2023-07-09T07:05:46;100978.75;;;23.80;100.00
64521;BME280;50896;46.714;17.322;2023-07-09T07:08:18;100978.66;;;23.87;100.00
64521;BME280;50896;46.714;17.322;2023-07-09T07:10:47;100987.28;;;23.96;100.00
64521;BME280;50896;46.714;17.322;2023-07-09T07:13:14;100989.38;;;24.05;100.00
64521;BME280;50896;46.714;17.322;2023-07-09T07:15:44;100997.41;;;24.12;100.00
64521;BME280;50896;46.714;17.322;2023-07-09T07:18:11;100995.63;;;24.18;100.00
64521;BME280;50896;46.714;17.322;2023-07-09T07:20:37;101000.94;;;24.25;100.00
64521;BME280;50896;46.714;17.322;2023-07-09T07:23:04;100993.72;;;24.30;100.00
64521;BME280;50896;46.714;17.322;2023-07-09T07:25:32;100998.91;;;24.32;100.00
64521;BME280;50896;46.714;17.322;2023-07-09T07:27:59;101000.09;;;24.36;100.00
64521;BME280;50896;46.714;17.322;2023-07-09T07:30:26;101003.16;;;24.39;100.00
64521;BME280;50896;46.714;17.322;2023-07-09T07:32:53;101001.00;;;24.42;100.00
64521;BME280;50896;46.714;17.322;2023-07-09T07:35:20;100998.66;;;24.45;100.00
64521;BME280;50896;46.714;17.322;2023-07-09T07:37:47;101004.78;;;24.52;100.00
64521;BME280;50896;46.714;17.322;2023-07-09T07:40:14;101003.78;;;24.58;100.00
64521;BME280;50896;46.714;17.322;2023-07-09T07:42:41;100999.09;;;24.66;100.00
64521;BME280;50896;46.714;17.322;2023-07-09T07:45:08;100995.88;;;24.69;100.00
64521;BME280;50896;46.714;17.322;2023-07-09T07:47:35;100999.78;;;24.73;100.00
64521;BME280;50896;46.714;17.322;2023-07-09T07:50:05;100992.53;;;24.79;100.00
64521;BME280;50896;46.714;17.322;2023-07-09T07:52:32;100988.97;;;24.78;100.00
64521;BME280;50896;46.714;17.322;2023-07-09T07:55:04;100991.31;;;24.86;100.00
64521;BME280;50896;46.714;17.322;2023-07-09T07:57:32;100989.75;;;24.90;100.00
64521;BME280;50896;46.714;17.322;2023-07-09T07:59:59;100996.28;;;24.89;100.00
64521;BME280;50896;46.714;17.322;2023-07-09T08:02:37;100993.06;;;24.93;100.00
64521;BME280;50896;46.714;17.322;2023-07-09T08:05:05;100992.00;;;24.94;100.00
64521;BME280;50896;46.714;17.322;2023-07-09T08:07:32;100998.09;;;25.01;100.00
64521;BME280;50896;46.714;17.322;2023-07-09T08:09:59;100993.00;;;25.04;100.00
64521;BME280;50896;46.714;17.322;2023-07-09T08:12:25;100999.03;;;25.06;100.00
64521;BME280;50896;46.714;17.322;2023-07-09T08:14:52;100993.34;;;25.08;100.00
64521;BME280;50896;46.714;17.322;2023-07-09T08:17:19;100994.50;;;25.12;100.00
64521;BME280;50896;46.714;17.322;2023-07-09T08:19:51;100998.13;;;25.18;100.00
64521;BME280;50896;46.714;17.322;2023-07-09T08:22:19;100996.72;;;25.15;100.00
64521;BME280;50896;46.714;17.322;2023-07-09T08:24:48;100999.69;;;25.14;100.00
64521;BME280;50896;46.714;17.322;2023-07-09T08:27:15;100989.72;;;25.19;100.00
64521;BME280;50896;46.714;17.322;2023-07-09T08:29:42;100993.25;;;25.20;100.00
64521;BME280;50896;46.714;17.322;2023-07-09T08:32:11;100997.13;;;25.24;100.00
64521;BME280;50896;46.714;17.322;2023-07-09T08:34:39;100993.84;;;25.05;100.00
64521;BME280;50896;46.714;17.322;2023-07-09T08:37:26;100985.34;;;25.18;100.00
64521;BME280;50896;46.714;17.322;2023-07-09T08:39:53;100994.50;;;25.29;100.00
64521;BME280;50896;46.714;17.322;2023-07-09T08:42:28;100978.56;;;25.33;100.00
64521;BME280;50896;46.714;17.322;2023-07-09T08:48:32;100982.50;;;25.42;100.00
64521;BME280;50896;46.714;17.322;2023-07-09T08:51:04;100981.53;;;25.48;100.00
64521;BME280;50896;46.714;17.322;2023-07-09T08:53:44;100981.03;;;25.51;100.00
64521;BME280;50896;46.714;17.322;2023-07-09T08:56:13;100985.97;;;25.54;100.00
64521;BME280;50896;46.714;17.322;2023-07-09T08:58:40;100982.16;;;25.55;100.00
64521;BME280;50896;46.714;17.322;2023-07-09T09:01:18;100972.59;;;25.53;100.00
64521;BME280;50896;46.714;17.322;2023-07-09T09:03:58;100976.22;;;25.58;100.00
64521;BME280;50896;46.714;17.322;2023-07-09T09:06:29;100979.84;;;25.64;100.00
64521;BME280;50896;46.714;17.322;2023-07-09T09:11:46;100980.22;;;25.73;100.00
64521;BME280;50896;46.714;17.322;2023-07-09T09:14:41;100978.09;;;25.75;100.00
64521;BME280;50896;46.714;17.322;2023-07-09T09:17:16;100979.50;;;25.78;100.00
64521;BME280;50896;46.714;17.322;2023-07-09T09:19:45;100967.94;;;25.87;100.00
64521;BME280;50896;46.714;17.322;2023-07-09T09:22:16;100976.16;;;25.92;100.00
64521;BME280;50896;46.714;17.322;2023-07-09T09:27:45;100980.47;;;26.05;100.00
64521;BME280;50896;46.714;17.322;2023-07-09T09:30:15;100971.53;;;26.10;100.00
64521;BME280;50896;46.714;17.322;2023-07-09T09:32:45;100975.41;;;26.14;100.00
64521;BME280;50896;46.714;17.322;2023-07-09T09:35:16;100978.66;;;26.16;100.00
64521;BME280;50896;46.714;17.322;2023-07-09T09:37:50;100976.03;;;26.21;100.00
64521;BME280;50896;46.714;17.322;2023-07-09T09:40:19;100982.34;;;26.27;100.00
64521;BME280;50896;46.714;17.322;2023-07-09T09:42:51;100983.75;;;26.30;100.00
64521;BME280;50896;46.714;17.322;2023-07-09T09:45:21;100974.81;;;26.34;100.00
64521;BME280;50896;46.714;17.322;2023-07-09T09:47:48;100984.63;;;26.35;100.00
64521;BME280;50896;46.714;17.322;2023-07-09T09:50:17;100986.03;;;26.38;100.00
64521;BME280;50896;46.714;17.322;2023-07-09T09:52:45;100975.69;;;26.40;100.00
64521;BME280;50896;46.714;17.322;2023-07-09T09:55:23;100970.56;;;26.43;100.00
64521;BME280;50896;46.714;17.322;2023-07-09T09:57:52;100971.63;;;26.42;100.00
64521;BME280;50896;46.714;17.322;2023-07-09T10:00:23;100968.09;;;26.42;100.00
64521;BME280;50896;46.714;17.322;2023-07-09T10:03:01;100970.03;;;26.47;100.00
64521;BME280;50896;46.714;17.322;2023-07-09T10:05:43;100974.16;;;26.49;100.00
64521;BME280;50896;46.714;17.322;2023-07-09T10:10:57;100971.38;;;26.44;100.00
64521;BME280;50896;46.714;17.322;2023-07-09T10:13:34;100971.97;;;26.46;100.00
64521;BME280;50896;46.714;17.322;2023-07-09T10:16:23;100972.50;;;26.48;100.00
64521;BME280;50896;46.714;17.322;2023-07-09T10:19:22;100981.03;;;26.52;100.00
64521;BME280;50896;46.714;17.322;2023-07-09T10:21:57;100975.81;;;26.50;100.00
64521;BME280;50896;46.714;17.322;2023-07-09T10:33:08;100974.91;;;26.67;100.00
64521;BME280;50896;46.714;17.322;2023-07-09T10:35:57;100968.72;;;26.71;100.00
64521;BME280;50896;46.714;17.322;2023-07-09T10:38:50;100971.25;;;26.78;100.00
64521;BME280;50896;46.714;17.322;2023-07-09T10:41:22;100974.59;;;26.85;100.00
64521;BME280;50896;46.714;17.322;2023-07-09T10:46:35;100963.81;;;27.01;100.00
64521;BME280;50896;46.714;17.322;2023-07-09T10:49:05;100953.78;;;27.06;100.00
64521;BME280;50896;46.714;17.322;2023-07-09T10:51:41;100966.94;;;27.15;100.00
64521;BME280;50896;46.714;17.322;2023-07-09T10:54:32;100966.72;;;27.21;100.00
64521;BME280;50896;46.714;17.322;2023-07-09T10:57:14;100962.13;;;27.27;100.00
64521;BME280;50896;46.714;17.322;2023-07-09T10:59:46;100963.03;;;27.38;100.00
64521;BME280;50896;46.714;17.322;2023-07-09T11:02:28;100959.81;;;27.46;100.00
64521;BME280;50896;46.714;17.322;2023-07-09T11:05:04;100959.34;;;27.54;100.00
64521;BME280;50896;46.714;17.322;2023-07-09T11:07:59;100956.69;;;27.65;100.00
64521;BME280;50896;46.714;17.322;2023-07-09T11:10:34;100959.72;;;27.73;71.44
64521;BME280;50896;46.714;17.322;2023-07-09T11:13:16;100962.78;;;27.82;51.03
64521;BME280;50896;46.714;17.322;2023-07-09T11:15:48;100962.56;;;27.89;49.30
64521;BME280;50896;46.714;17.322;2023-07-09T11:18:22;100968.38;;;28.03;50.06
64521;BME280;50896;46.714;17.322;2023-07-09T11:21:15;100964.59;;;28.14;49.46
64521;BME280;50896;46.714;17.322;2023-07-09T11:23:50;100957.81;;;28.22;48.34
64521;BME280;50896;46.714;17.322;2023-07-09T11:26:28;100962.50;;;28.32;48.39
64521;BME280;50896;46.714;17.322;2023-07-09T11:29:13;100963.09;;;28.44;48.21
64521;BME280;50896;46.714;17.322;2023-07-09T11:31:45;100959.81;;;28.52;46.73
64521;BME280;50896;46.714;17.322;2023-07-09T11:36:58;100957.38;;;28.61;46.54
64521;BME280;50896;46.714;17.322;2023-07-09T11:39:41;100952.72;;;28.61;46.17
64521;BME280;50896;46.714;17.322;2023-07-09T11:42:31;100951.69;;;28.73;46.44
64521;BME280;50896;46.714;17.322;2023-07-09T11:45:06;100946.50;;;28.87;46.17
64521;BME280;50896;46.714;17.322;2023-07-09T11:47:45;100944.88;;;28.96;46.17
64521;BME280;50896;46.714;17.322;2023-07-09T11:50:24;100943.50;;;29.04;45.42
64521;BME280;50896;46.714;17.322;2023-07-09T11:53:02;100946.53;;;29.12;45.32
64521;BME280;50896;46.714;17.322;2023-07-09T11:55:48;100932.56;;;29.29;43.43
64521;BME280;50896;46.714;17.322;2023-07-09T11:58:18;100944.91;;;29.32;42.57
64521;BME280;50896;46.714;17.322;2023-07-09T12:00:54;100939.94;;;29.39;43.41
64521;BME280;50896;46.714;17.322;2023-07-09T12:05:56;100928.47;;;29.32;43.62
64521;BME280;50896;46.714;17.322;2023-07-09T12:08:30;100927.63;;;29.31;43.67
64521;BME280;50896;46.714;17.322;2023-07-09T12:10:59;100921.88;;;29.33;43.86
64521;BME280;50896;46.714;17.322;2023-07-09T12:13:28;100915.06;;;29.30;43.63
64521;BME280;50896;46.714;17.322;2023-07-09T12:15:55;100919.44;;;29.26;43.04
64521;BME280;50896;46.714;17.322;2023-07-09T12:18:21;100922.44;;;29.25;42.59
64521;BME280;50896;46.714;17.322;2023-07-09T12:20:53;100915.31;;;29.19;42.69
64521;BME280;50896;46.714;17.322;2023-07-09T12:23:24;100921.34;;;29.15;43.09
64521;BME280;50896;46.714;17.322;2023-07-09T12:25:52;100912.56;;;29.13;43.63
64521;BME280;50896;46.714;17.322;2023-07-09T12:28:21;100911.75;;;29.13;43.36
64521;BME280;50896;46.714;17.322;2023-07-09T12:30:50;100912.56;;;29.03;41.86
64521;BME280;50896;46.714;17.322;2023-07-09T12:33:26;100906.28;;;28.97;42.76
64521;BME280;50896;46.714;17.322;2023-07-09T12:35:58;100906.28;;;28.92;43.35
64521;BME280;50896;46.714;17.322;2023-07-09T12:38:28;100911.50;;;28.89;43.35
64521;BME280;50896;46.714;17.322;2023-07-09T12:40:59;100905.19;;;28.83;43.46
64521;BME280;50896;46.714;17.322;2023-07-09T12:43:31;100904.38;;;28.83;43.30
64521;BME280;50896;46.714;17.322;2023-07-09T12:45:59;100896.41;;;28.76;42.80
64521;BME280;50896;46.714;17.322;2023-07-09T12:48:28;100896.97;;;28.78;43.10
64521;BME280;50896;46.714;17.322;2023-07-09T12:50:58;100892.59;;;28.72;43.97
64521;BME280;50896;46.714;17.322;2023-07-09T12:53:28;100893.13;;;28.69;44.05
64521;BME280;50896;46.714;17.322;2023-07-09T12:55:56;100893.41;;;28.67;43.74
64521;BME280;50896;46.714;17.322;2023-07-09T12:58:29;100894.50;;;28.71;43.87
64521;BME280;50896;46.714;17.322;2023-07-09T13:00:57;100881.66;;;28.72;42.51
64521;BME280;50896;46.714;17.322;2023-07-09T13:03:30;100884.41;;;28.67;43.67
64521;BME280;50896;46.714;17.322;2023-07-09T13:06:04;100877.50;;;28.59;44.01
64521;BME280;50896;46.714;17.322;2023-07-09T13:08:39;100880.78;;;28.51;43.29
64521;BME280;50896;46.714;17.322;2023-07-09T13:11:16;100879.13;;;28.44;43.71
64521;BME280;50896;46.714;17.322;2023-07-09T13:13:57;100869.03;;;28.40;44.21
64521;BME280;50896;46.714;17.322;2023-07-09T13:16:25;100865.19;;;28.36;44.82
64521;BME280;50896;46.714;17.322;2023-07-09T13:18:52;100873.13;;;28.37;46.05
64521;BME280;50896;46.714;17.322;2023-07-09T13:21:20;100865.44;;;28.39;43.79
64521;BME280;50896;46.714;17.322;2023-07-09T13:23:47;100874.50;;;28.40;44.61
64521;BME280;50896;46.714;17.322;2023-07-09T13:26:15;100872.31;;;28.42;44.79